CheckWX is a tool to help pilots better visualize weather data.  It is not intended as a substitute for an official pre-flight weather briefing.

20:26:48 UTC

CYHD METAR
Dryden Regional Airport
Dryden, Canada
Current

27 mins ago

CYHD 202000Z AUTO 32005KT 270V050 9SM FEW080 BKN170 14/M00 A2970 RMK SLP068 DENSITY ALT 1700FT
Observed
Apr-20 @ 20:00 UTC
Wind
  • 320° at 5 KTS
Visibility
9 SM
Flight Rules
VFR
Cloud Levels
  • Few at 8,000' AGL
  • Broken at 17,000' AGL
Temperature
14°C / 57°F
Dewpoint
C / 32°F
Humidity
39%
Altimeter
29.7" Hg
Pressure
1005.72 hPa
Previous

1 hour ago

CYHD 201900Z AUTO 03003KT 310V090 9SM BKN080 BKN110 BKN130 13/04 A2968 RMK SLP063 DENSITY ALT 1600FT
Observed
Apr-20 @ 19:00 UTC
Wind
  • 030° at 3 KTS
Visibility
9 SM
Flight Rules
VFR
Cloud Levels
  • Broken at 8,000' AGL
  • Broken at 11,000' AGL
  • Broken at 13,000' AGL
Temperature
13°C / 55°F
Dewpoint
C / 39°F
Humidity
55%
Altimeter
29.68" Hg
Pressure
1005.12 hPa
Previous

2 hours ago

CYHD 201800Z AUTO 33005KT 300V010 9SM SCT075 BKN130 BKN150 11/05 A2968 RMK SLP061 DENSITY ALT 1500FT
Observed
Apr-20 @ 18:00 UTC
Wind
  • 330° at 5 KTS
Visibility
9 SM
Flight Rules
VFR
Cloud Levels
  • Scattered at 7,500' AGL
  • Broken at 13,000' AGL
  • Broken at 15,000' AGL
Temperature
11°C / 52°F
Dewpoint
C / 41°F
Humidity
67%
Altimeter
29.68" Hg
Pressure
1005.12 hPa